sensor_id;sensor_type;location;lat;lon;timestamp;P1;durP1;ratioP1;P2;durP2;ratioP2
52926;SDS011;40783;49.710;8.842;2022-12-10T05:22:44;28.80;;;16.90;;
52926;SDS011;40783;49.710;8.842;2022-12-10T05:25:27;28.60;;;16.50;;
52926;SDS011;40783;49.710;8.842;2022-12-10T05:27:53;29.67;;;16.93;;
52926;SDS011;40783;49.710;8.842;2022-12-10T05:30:18;33.87;;;17.23;;
52926;SDS011;40783;49.710;8.842;2022-12-10T05:32:46;28.13;;;17.60;;
52926;SDS011;40783;49.710;8.842;2022-12-10T05:35:11;31.40;;;17.80;;
52926;SDS011;40783;49.710;8.842;2022-12-10T05:37:37;28.63;;;18.07;;
52926;SDS011;40783;49.710;8.842;2022-12-10T05:40:03;32.87;;;18.63;;
52926;SDS011;40783;49.710;8.842;2022-12-10T05:42:38;33.63;;;20.23;;
52926;SDS011;40783;49.710;8.842;2022-12-10T05:45:03;37.40;;;19.47;;
52926;SDS011;40783;49.710;8.842;2022-12-10T05:47:31;27.63;;;17.17;;
52926;SDS011;40783;49.710;8.842;2022-12-10T05:49:56;30.77;;;19.45;;
52926;SDS011;40783;49.710;8.842;2022-12-10T05:52:21;29.50;;;17.80;;
52926;SDS011;40783;49.710;8.842;2022-12-10T05:54:49;35.63;;;20.20;;
52926;SDS011;40783;49.710;8.842;2022-12-10T05:57:14;37.93;;;18.07;;
52926;SDS011;40783;49.710;8.842;2022-12-10T05:59:39;32.47;;;16.40;;
52926;SDS011;40783;49.710;8.842;2022-12-10T06:02:07;34.50;;;20.60;;
52926;SDS011;40783;49.710;8.842;2022-12-10T06:04:33;34.47;;;16.80;;
52926;SDS011;40783;49.710;8.842;2022-12-10T06:06:58;26.40;;;18.27;;
52926;SDS011;40783;49.710;8.842;2022-12-10T06:09:23;32.50;;;19.13;;
52926;SDS011;40783;49.710;8.842;2022-12-10T06:11:51;30.35;;;19.00;;
52926;SDS011;40783;49.710;8.842;2022-12-10T06:14:16;32.10;;;20.97;;
52926;SDS011;40783;49.710;8.842;2022-12-10T06:16:44;27.42;;;15.38;;
52926;SDS011;40783;49.710;8.842;2022-12-10T06:19:09;30.03;;;17.07;;
52926;SDS011;40783;49.710;8.842;2022-12-10T06:21:34;26.57;;;19.53;;
52926;SDS011;40783;49.710;8.842;2022-12-10T06:24:00;31.60;;;19.27;;
52926;SDS011;40783;49.710;8.842;2022-12-10T06:26:27;28.13;;;17.35;;
52926;SDS011;40783;49.710;8.842;2022-12-10T06:28:52;28.97;;;19.47;;
52926;SDS011;40783;49.710;8.842;2022-12-10T06:31:21;33.60;;;17.77;;
52926;SDS011;40783;49.710;8.842;2022-12-10T06:33:47;35.80;;;18.88;;
52926;SDS011;40783;49.710;8.842;2022-12-10T06:36:14;25.67;;;15.65;;
52926;SDS011;40783;49.710;8.842;2022-12-10T06:38:43;29.52;;;18.75;;
52926;SDS011;40783;49.710;8.842;2022-12-10T06:41:10;32.20;;;17.35;;
52926;SDS011;40783;49.710;8.842;2022-12-10T06:43:37;31.77;;;16.58;;
52926;SDS011;40783;49.710;8.842;2022-12-10T06:46:06;27.73;;;17.47;;
52926;SDS011;40783;49.710;8.842;2022-12-10T06:48:32;36.72;;;18.15;;
52926;SDS011;40783;49.710;8.842;2022-12-10T06:50:58;27.03;;;17.70;;
52926;SDS011;40783;49.710;8.842;2022-12-10T06:53:23;38.07;;;20.20;;
52926;SDS011;40783;49.710;8.842;2022-12-10T06:55:49;30.00;;;19.23;;
52926;SDS011;40783;49.710;8.842;2022-12-10T06:58:16;31.55;;;16.42;;
52926;SDS011;40783;49.710;8.842;2022-12-10T07:00:41;32.73;;;15.87;;
52926;SDS011;40783;49.710;8.842;2022-12-10T07:03:07;33.33;;;19.87;;
52926;SDS011;40783;49.710;8.842;2022-12-10T07:05:37;29.13;;;15.15;;
52926;SDS011;40783;49.710;8.842;2022-12-10T07:08:04;30.43;;;19.33;;
52926;SDS011;40783;49.710;8.842;2022-12-10T07:10:30;41.80;;;21.30;;
52926;SDS011;40783;49.710;8.842;2022-12-10T07:12:55;27.23;;;15.27;;
52926;SDS011;40783;49.710;8.842;2022-12-10T07:15:24;35.90;;;17.98;;
52926;SDS011;40783;49.710;8.842;2022-12-10T07:17:52;26.13;;;16.67;;
52926;SDS011;40783;49.710;8.842;2022-12-10T07:20:19;34.20;;;19.75;;
52926;SDS011;40783;49.710;8.842;2022-12-10T07:22:47;31.92;;;18.77;;
52926;SDS011;40783;49.710;8.842;2022-12-10T07:25:12;36.90;;;17.70;;
52926;SDS011;40783;49.710;8.842;2022-12-10T07:27:39;30.55;;;19.17;;
52926;SDS011;40783;49.710;8.842;2022-12-10T07:30:05;28.73;;;20.57;;
52926;SDS011;40783;49.710;8.842;2022-12-10T07:32:30;34.70;;;19.73;;
52926;SDS011;40783;49.710;8.842;2022-12-10T07:34:56;46.67;;;19.43;;
52926;SDS011;40783;49.710;8.842;2022-12-10T07:37:21;33.87;;;18.53;;
52926;SDS011;40783;49.710;8.842;2022-12-10T07:39:49;30.70;;;18.83;;
52926;SDS011;40783;49.710;8.842;2022-12-10T07:42:16;38.13;;;22.67;;
52926;SDS011;40783;49.710;8.842;2022-12-10T07:44:41;30.37;;;20.33;;
52926;SDS011;40783;49.710;8.842;2022-12-10T07:47:09;37.45;;;20.58;;
52926;SDS011;40783;49.710;8.842;2022-12-10T07:49:34;28.73;;;19.33;;
52926;SDS011;40783;49.710;8.842;2022-12-10T07:52:02;38.73;;;21.73;;
52926;SDS011;40783;49.710;8.842;2022-12-10T07:54:29;37.00;;;19.80;;
52926;SDS011;40783;49.710;8.842;2022-12-10T07:56:59;33.75;;;19.35;;
52926;SDS011;40783;49.710;8.842;2022-12-10T07:59:25;39.93;;;19.70;;
52926;SDS011;40783;49.710;8.842;2022-12-10T08:01:51;30.17;;;19.37;;
52926;SDS011;40783;49.710;8.842;2022-12-10T08:04:19;30.70;;;18.48;;
52926;SDS011;40783;49.710;8.842;2022-12-10T08:06:44;35.97;;;22.60;;
52926;SDS011;40783;49.710;8.842;2022-12-10T08:09:15;34.15;;;20.20;;
52926;SDS011;40783;49.710;8.842;2022-12-10T08:11:42;34.67;;;20.73;;
52926;SDS011;40783;49.710;8.842;2022-12-10T08:14:10;28.48;;;18.48;;
52926;SDS011;40783;49.710;8.842;2022-12-10T08:16:35;38.23;;;18.73;;
52926;SDS011;40783;49.710;8.842;2022-12-10T08:19:01;32.43;;;18.50;;
52926;SDS011;40783;49.710;8.842;2022-12-10T08:21:29;35.13;;;18.92;;
52926;SDS011;40783;49.710;8.842;2022-12-10T08:24:01;36.47;;;18.23;;
52926;SDS011;40783;49.710;8.842;2022-12-10T08:26:29;33.45;;;20.02;;
52926;SDS011;40783;49.710;8.842;2022-12-10T08:28:59;37.00;;;19.98;;
52926;SDS011;40783;49.710;8.842;2022-12-10T08:31:26;33.92;;;21.58;;
52926;SDS011;40783;49.710;8.842;2022-12-10T08:33:52;38.65;;;23.55;;
52926;SDS011;40783;49.710;8.842;2022-12-10T08:36:17;27.23;;;18.27;;
52926;SDS011;40783;49.710;8.842;2022-12-10T08:38:44;34.97;;;20.50;;
52926;SDS011;40783;49.710;8.842;2022-12-10T08:41:14;30.33;;;17.38;;
52926;SDS011;40783;49.710;8.842;2022-12-10T08:43:43;34.17;;;19.88;;
52926;SDS011;40783;49.710;8.842;2022-12-10T08:46:09;39.00;;;19.23;;
52926;SDS011;40783;49.710;8.842;2022-12-10T08:51:04;33.72;;;18.50;;
52926;SDS011;40783;49.710;8.842;2022-12-10T08:55:56;31.77;;;17.35;;
52926;SDS011;40783;49.710;8.842;2022-12-10T08:58:21;32.83;;;20.17;;
52926;SDS011;40783;49.710;8.842;2022-12-10T09:00:49;32.10;;;17.92;;
52926;SDS011;40783;49.710;8.842;2022-12-10T09:03:15;33.80;;;20.23;;
52926;SDS011;40783;49.710;8.842;2022-12-10T09:05:43;30.25;;;19.13;;
52926;SDS011;40783;49.710;8.842;2022-12-10T09:08:11;30.17;;;17.13;;
52926;SDS011;40783;49.710;8.842;2022-12-10T09:10:36;33.78;;;18.63;;
52926;SDS011;40783;49.710;8.842;2022-12-10T09:13:02;32.85;;;16.77;;
52926;SDS011;40783;49.710;8.842;2022-12-10T09:15:28;30.27;;;18.50;;
52926;SDS011;40783;49.710;8.842;2022-12-10T09:17:56;28.90;;;16.85;;
52926;SDS011;40783;49.710;8.842;2022-12-10T09:20:26;28.98;;;16.98;;
52926;SDS011;40783;49.710;8.842;2022-12-10T09:22:51;30.13;;;16.53;;
52926;SDS011;40783;49.710;8.842;2022-12-10T09:25:19;34.65;;;19.58;;
52926;SDS011;40783;49.710;8.842;2022-12-10T09:27:46;32.88;;;18.02;;
52926;SDS011;40783;49.710;8.842;2022-12-10T09:30:11;24.67;;;16.27;;
52926;SDS011;40783;49.710;8.842;2022-12-10T09:32:40;29.03;;;17.33;;
52926;SDS011;40783;49.710;8.842;2022-12-10T09:35:06;28.30;;;17.50;;
52926;SDS011;40783;49.710;8.842;2022-12-10T09:37:32;25.70;;;18.17;;
52926;SDS011;40783;49.710;8.842;2022-12-10T09:39:57;47.57;;;20.70;;
52926;SDS011;40783;49.710;8.842;2022-12-10T09:50:30;27.85;;;16.45;;
52926;SDS011;40783;49.710;8.842;2022-12-10T09:53:07;25.20;;;17.17;;
52926;SDS011;40783;49.710;8.842;2022-12-10T09:55:40;28.45;;;17.08;;
52926;SDS011;40783;49.710;8.842;2022-12-10T09:58:11;29.70;;;18.73;;
52926;SDS011;40783;49.710;8.842;2022-12-10T10:00:42;29.17;;;19.05;;
52926;SDS011;40783;49.710;8.842;2022-12-10T10:03:14;28.60;;;19.63;;
52926;SDS011;40783;49.710;8.842;2022-12-10T10:08:14;28.98;;;17.40;;
52926;SDS011;40783;49.710;8.842;2022-12-10T10:10:42;29.27;;;17.52;;
52926;SDS011;40783;49.710;8.842;2022-12-10T10:15:33;29.70;;;17.73;;
52926;SDS011;40783;49.710;8.842;2022-12-10T10:18:05;30.77;;;16.75;;
52926;SDS011;40783;49.710;8.842;2022-12-10T10:20:37;34.15;;;19.58;;
52926;SDS011;40783;49.710;8.842;2022-12-10T10:23:07;28.63;;;18.30;;
52926;SDS011;40783;49.710;8.842;2022-12-10T10:25:33;24.70;;;17.23;;
52926;SDS011;40783;49.710;8.842;2022-12-10T10:27:59;31.63;;;15.93;;
52926;SDS011;40783;49.710;8.842;2022-12-10T10:30:25;28.53;;;16.43;;
52926;SDS011;40783;49.710;8.842;2022-12-10T10:32:56;41.33;;;20.23;;
52926;SDS011;40783;49.710;8.842;2022-12-10T10:35:33;33.28;;;18.63;;
52926;SDS011;40783;49.710;8.842;2022-12-10T10:38:07;32.33;;;19.85;;
52926;SDS011;40783;49.710;8.842;2022-12-10T10:40:45;31.10;;;20.48;;
52926;SDS011;40783;49.710;8.842;2022-12-10T10:43:21;25.92;;;16.13;;
52926;SDS011;40783;49.710;8.842;2022-12-10T10:48:26;29.77;;;17.70;;
52926;SDS011;40783;49.710;8.842;2022-12-10T10:53:41;37.17;;;19.23;;
52926;SDS011;40783;49.710;8.842;2022-12-10T10:56:10;26.33;;;16.60;;
52926;SDS011;40783;49.710;8.842;2022-12-10T10:59:01;28.40;;;16.60;;
52926;SDS011;40783;49.710;8.842;2022-12-10T11:04:46;31.70;;;18.10;;
52926;SDS011;40783;49.710;8.842;2022-12-10T11:07:18;37.03;;;19.08;;
52926;SDS011;40783;49.710;8.842;2022-12-10T11:09:47;27.25;;;17.80;;
52926;SDS011;40783;49.710;8.842;2022-12-10T11:15:04;23.95;;;14.18;;
52926;SDS011;40783;49.710;8.842;2022-12-10T11:17:55;26.63;;;13.38;;
52926;SDS011;40783;49.710;8.842;2022-12-10T11:22:52;23.63;;;13.88;;
52926;SDS011;40783;49.710;8.842;2022-12-10T11:25:25;27.95;;;14.73;;
52926;SDS011;40783;49.710;8.842;2022-12-10T11:30:26;29.98;;;17.58;;
52926;SDS011;40783;49.710;8.842;2022-12-10T11:33:24;22.10;;;13.82;;
52926;SDS011;40783;49.710;8.842;2022-12-10T11:38:31;24.65;;;15.00;;
52926;SDS011;40783;49.710;8.842;2022-12-10T11:50:20;23.83;;;14.27;;
52926;SDS011;40783;49.710;8.842;2022-12-10T12:00:45;26.33;;;13.63;;
52926;SDS011;40783;49.710;8.842;2022-12-10T12:06:23;23.83;;;17.35;;
52926;SDS011;40783;49.710;8.842;2022-12-10T12:14:46;28.25;;;16.17;;
52926;SDS011;40783;49.710;8.842;2022-12-10T12:17:32;28.65;;;17.13;;
52926;SDS011;40783;49.710;8.842;2022-12-10T12:20:08;22.25;;;15.20;;
52926;SDS011;40783;49.710;8.842;2022-12-10T12:22:48;23.42;;;13.15;;
52926;SDS011;40783;49.710;8.842;2022-12-10T12:28:10;21.58;;;12.77;;
52926;SDS011;40783;49.710;8.842;2022-12-10T12:30:36;21.13;;;14.50;;
52926;SDS011;40783;49.710;8.842;2022-12-10T12:33:10;22.77;;;14.23;;
52926;SDS011;40783;49.710;8.842;2022-12-10T12:35:47;29.30;;;14.98;;
52926;SDS011;40783;49.710;8.842;2022-12-10T12:40:43;23.75;;;13.77;;
52926;SDS011;40783;49.710;8.842;2022-12-10T12:43:17;21.20;;;12.40;;
52926;SDS011;40783;49.710;8.842;2022-12-10T12:45:51;33.83;;;21.30;;
52926;SDS011;40783;49.710;8.842;2022-12-10T12:48:27;37.30;;;24.98;;
52926;SDS011;40783;49.710;8.842;2022-12-10T12:51:19;28.35;;;17.33;;
52926;SDS011;40783;49.710;8.842;2022-12-10T12:53:51;20.73;;;13.13;;
52926;SDS011;40783;49.710;8.842;2022-12-10T12:59:03;22.65;;;14.20;;
52926;SDS011;40783;49.710;8.842;2022-12-10T13:04:01;30.80;;;23.33;;
52926;SDS011;40783;49.710;8.842;2022-12-10T13:06:31;23.15;;;16.92;;
52926;SDS011;40783;49.710;8.842;2022-12-10T13:14:34;28.02;;;14.85;;
52926;SDS011;40783;49.710;8.842;2022-12-10T13:17:08;23.40;;;13.80;;
52926;SDS011;40783;49.710;8.842;2022-12-10T13:19:51;24.73;;;13.70;;
52926;SDS011;40783;49.710;8.842;2022-12-10T13:25:10;19.10;;;13.40;;
52926;SDS011;40783;49.710;8.842;2022-12-10T13:27:37;20.65;;;12.07;;
52926;SDS011;40783;49.710;8.842;2022-12-10T13:30:13;19.67;;;12.75;;
52926;SDS011;40783;49.710;8.842;2022-12-10T13:32:52;23.27;;;15.15;;
52926;SDS011;40783;49.710;8.842;2022-12-10T13:35:30;22.15;;;13.35;;
52926;SDS011;40783;49.710;8.842;2022-12-10T13:38:22;20.58;;;14.65;;
52926;SDS011;40783;49.710;8.842;2022-12-10T13:41:09;20.60;;;13.63;;
52926;SDS011;40783;49.710;8.842;2022-12-10T13:43:59;20.45;;;14.10;;
52926;SDS011;40783;49.710;8.842;2022-12-10T13:46:54;18.75;;;14.18;;
52926;SDS011;40783;49.710;8.842;2022-12-10T13:49:20;21.67;;;12.93;;
52926;SDS011;40783;49.710;8.842;2022-12-10T13:55:44;22.33;;;12.65;;
52926;SDS011;40783;49.710;8.842;2022-12-10T14:06:43;19.27;;;12.85;;
52926;SDS011;40783;49.710;8.842;2022-12-10T14:11:48;22.70;;;11.52;;
52926;SDS011;40783;49.710;8.842;2022-12-10T14:14:23;19.23;;;12.73;;
52926;SDS011;40783;49.710;8.842;2022-12-10T14:16:55;24.02;;;12.55;;
52926;SDS011;40783;49.710;8.842;2022-12-10T14:19:23;18.15;;;12.25;;
52926;SDS011;40783;49.710;8.842;2022-12-10T14:21:52;19.02;;;12.25;;
52926;SDS011;40783;49.710;8.842;2022-12-10T14:27:09;19.27;;;11.98;;
52926;SDS011;40783;49.710;8.842;2022-12-10T14:29:36;17.67;;;10.95;;
52926;SDS011;40783;49.710;8.842;2022-12-10T14:32:02;17.67;;;11.57;;
52926;SDS011;40783;49.710;8.842;2022-12-10T14:34:27;21.83;;;12.37;;
52926;SDS011;40783;49.710;8.842;2022-12-10T14:36:55;21.00;;;13.35;;
52926;SDS011;40783;49.710;8.842;2022-12-10T14:39:27;23.45;;;14.15;;
52926;SDS011;40783;49.710;8.842;2022-12-10T14:41:58;22.33;;;14.02;;
52926;SDS011;40783;49.710;8.842;2022-12-10T14:44:28;20.67;;;11.57;;
52926;SDS011;40783;49.710;8.842;2022-12-10T14:49:53;31.00;;;20.25;;
52926;SDS011;40783;49.710;8.842;2022-12-10T14:52:20;28.35;;;17.25;;
52926;SDS011;40783;49.710;8.842;2022-12-10T14:54:48;25.25;;;15.02;;
52926;SDS011;40783;49.710;8.842;2022-12-10T14:57:17;24.58;;;14.80;;
52926;SDS011;40783;49.710;8.842;2022-12-10T14:59:48;34.03;;;20.50;;
52926;SDS011;40783;49.710;8.842;2022-12-10T15:02:29;23.00;;;14.50;;
52926;SDS011;40783;49.710;8.842;2022-12-10T15:05:00;20.65;;;12.77;;
52926;SDS011;40783;49.710;8.842;2022-12-10T15:07:30;21.15;;;16.05;;
52926;SDS011;40783;49.710;8.842;2022-12-10T15:09:59;25.20;;;15.25;;
52926;SDS011;40783;49.710;8.842;2022-12-10T15:14:52;20.00;;;12.93;;
52926;SDS011;40783;49.710;8.842;2022-12-10T15:20:30;18.05;;;11.18;;
52926;SDS011;40783;49.710;8.842;2022-12-10T15:23:25;20.02;;;11.23;;
52926;SDS011;40783;49.710;8.842;2022-12-10T15:28:46;22.08;;;12.57;;
52926;SDS011;40783;49.710;8.842;2022-12-10T15:36:42;21.35;;;13.07;;
52926;SDS011;40783;49.710;8.842;2022-12-10T15:39:20;23.38;;;13.95;;
52926;SDS011;40783;49.710;8.842;2022-12-10T15:44:27;31.20;;;14.50;;
52926;SDS011;40783;49.710;8.842;2022-12-10T15:47:09;20.63;;;13.65;;
52926;SDS011;40783;49.710;8.842;2022-12-10T15:49:43;19.65;;;14.32;;
52926;SDS011;40783;49.710;8.842;2022-12-10T15:52:11;23.45;;;16.02;;
52926;SDS011;40783;49.710;8.842;2022-12-10T15:54:40;28.58;;;19.58;;
52926;SDS011;40783;49.710;8.842;2022-12-10T15:57:18;25.92;;;14.35;;
52926;SDS011;40783;49.710;8.842;2022-12-10T15:59:52;17.45;;;10.77;;
52926;SDS011;40783;49.710;8.842;2022-12-10T16:05:16;20.60;;;13.05;;
52926;SDS011;40783;49.710;8.842;2022-12-10T16:07:47;19.95;;;11.48;;
52926;SDS011;40783;49.710;8.842;2022-12-10T16:10:14;16.95;;;11.43;;
52926;SDS011;40783;49.710;8.842;2022-12-10T16:12:41;19.92;;;12.50;;
52926;SDS011;40783;49.710;8.842;2022-12-10T16:15:11;22.45;;;13.18;;
52926;SDS011;40783;49.710;8.842;2022-12-10T16:17:43;20.02;;;13.25;;
52926;SDS011;40783;49.710;8.842;2022-12-10T16:22:37;29.17;;;14.73;;
52926;SDS011;40783;49.710;8.842;2022-12-10T16:25:04;25.23;;;16.73;;
52926;SDS011;40783;49.710;8.842;2022-12-10T16:27:32;26.83;;;16.83;;
52926;SDS011;40783;49.710;8.842;2022-12-10T16:30:10;21.65;;;13.00;;
52926;SDS011;40783;49.710;8.842;2022-12-10T16:32:36;27.95;;;16.50;;
52926;SDS011;40783;49.710;8.842;2022-12-10T16:35:01;30.47;;;17.23;;
52926;SDS011;40783;49.710;8.842;2022-12-10T16:37:27;28.73;;;16.67;;
52926;SDS011;40783;49.710;8.842;2022-12-10T16:39:52;34.10;;;18.90;;
52926;SDS011;40783;49.710;8.842;2022-12-10T16:42:17;34.30;;;21.97;;
52926;SDS011;40783;49.710;8.842;2022-12-10T16:44:47;32.45;;;20.48;;
52926;SDS011;40783;49.710;8.842;2022-12-10T16:47:15;29.95;;;19.02;;
52926;SDS011;40783;49.710;8.842;2022-12-10T16:49:40;33.95;;;19.83;;
52926;SDS011;40783;49.710;8.842;2022-12-10T16:52:05;26.37;;;17.87;;
52926;SDS011;40783;49.710;8.842;2022-12-10T16:54:31;32.37;;;20.27;;
52926;SDS011;40783;49.710;8.842;2022-12-10T16:56:57;25.25;;;17.67;;
52926;SDS011;40783;49.710;8.842;2022-12-10T16:59:22;25.67;;;17.60;;
52926;SDS011;40783;49.710;8.842;2022-12-10T17:01:48;26.17;;;15.67;;
52926;SDS011;40783;49.710;8.842;2022-12-10T17:04:13;22.03;;;15.93;;
52926;SDS011;40783;49.710;8.842;2022-12-10T17:06:38;30.40;;;16.57;;
52926;SDS011;40783;49.710;8.842;2022-12-10T17:09:04;21.37;;;15.70;;
52926;SDS011;40783;49.710;8.842;2022-12-10T17:11:38;28.88;;;16.58;;
52926;SDS011;40783;49.710;8.842;2022-12-10T17:14:27;20.27;;;15.43;;
52926;SDS011;40783;49.710;8.842;2022-12-10T17:16:58;25.65;;;15.70;;
52926;SDS011;40783;49.710;8.842;2022-12-10T17:19:28;24.40;;;15.05;;
52926;SDS011;40783;49.710;8.842;2022-12-10T17:21:54;27.73;;;16.08;;
52926;SDS011;40783;49.710;8.842;2022-12-10T17:24:20;24.33;;;16.70;;
52926;SDS011;40783;49.710;8.842;2022-12-10T17:26:48;26.30;;;14.10;;
52926;SDS011;40783;49.710;8.842;2022-12-10T17:31:42;33.03;;;15.88;;
52926;SDS011;40783;49.710;8.842;2022-12-10T17:34:11;27.25;;;15.57;;
52926;SDS011;40783;49.710;8.842;2022-12-10T17:36:38;28.45;;;16.67;;
52926;SDS011;40783;49.710;8.842;2022-12-10T17:39:04;40.53;;;26.73;;
52926;SDS011;40783;49.710;8.842;2022-12-10T17:41:30;37.55;;;24.02;;
52926;SDS011;40783;49.710;8.842;2022-12-10T17:43:55;39.07;;;27.27;;
52926;SDS011;40783;49.710;8.842;2022-12-10T17:46:22;35.57;;;20.83;;
52926;SDS011;40783;49.710;8.842;2022-12-10T17:48:49;37.28;;;21.60;;
52926;SDS011;40783;49.710;8.842;2022-12-10T17:51:14;31.93;;;19.07;;
52926;SDS011;40783;49.710;8.842;2022-12-10T17:53:40;30.03;;;20.03;;
52926;SDS011;40783;49.710;8.842;2022-12-10T17:56:15;34.17;;;19.27;;
52926;SDS011;40783;49.710;8.842;2022-12-10T17:58:42;30.02;;;20.05;;
52926;SDS011;40783;49.710;8.842;2022-12-10T18:01:08;31.85;;;19.45;;
52926;SDS011;40783;49.710;8.842;2022-12-10T18:03:39;28.23;;;18.73;;
52926;SDS011;40783;49.710;8.842;2022-12-10T18:08:42;34.58;;;20.90;;
52926;SDS011;40783;49.710;8.842;2022-12-10T18:11:10;28.70;;;18.48;;
52926;SDS011;40783;49.710;8.842;2022-12-10T18:13:49;35.63;;;19.33;;
52926;SDS011;40783;49.710;8.842;2022-12-10T18:16:16;31.40;;;19.07;;
52926;SDS011;40783;49.710;8.842;2022-12-10T18:18:48;28.92;;;18.50;;
52926;SDS011;40783;49.710;8.842;2022-12-10T18:21:14;25.07;;;16.03;;
52926;SDS011;40783;49.710;8.842;2022-12-10T18:23:42;24.42;;;16.63;;
52926;SDS011;40783;49.710;8.842;2022-12-10T18:26:12;26.48;;;13.63;;
52926;SDS011;40783;49.710;8.842;2022-12-10T18:28:42;35.42;;;19.23;;
52926;SDS011;40783;49.710;8.842;2022-12-10T18:31:19;33.97;;;17.08;;
52926;SDS011;40783;49.710;8.842;2022-12-10T18:33:56;32.13;;;18.92;;
52926;SDS011;40783;49.710;8.842;2022-12-10T18:36:30;29.58;;;18.52;;
52926;SDS011;40783;49.710;8.842;2022-12-10T18:39:01;43.30;;;22.13;;
52926;SDS011;40783;49.710;8.842;2022-12-10T18:41:32;36.60;;;20.92;;
52926;SDS011;40783;49.710;8.842;2022-12-10T18:43:59;37.97;;;22.05;;
52926;SDS011;40783;49.710;8.842;2022-12-10T18:46:28;42.60;;;23.25;;
52926;SDS011;40783;49.710;8.842;2022-12-10T18:48:56;29.90;;;20.05;;
52926;SDS011;40783;49.710;8.842;2022-12-10T18:51:22;38.22;;;22.40;;
52926;SDS011;40783;49.710;8.842;2022-12-10T18:53:48;38.20;;;21.95;;
52926;SDS011;40783;49.710;8.842;2022-12-10T18:56:19;45.88;;;23.17;;
52926;SDS011;40783;49.710;8.842;2022-12-10T18:58:48;40.90;;;23.40;;
52926;SDS011;40783;49.710;8.842;2022-12-10T19:01:17;38.05;;;21.42;;
52926;SDS011;40783;49.710;8.842;2022-12-10T19:03:46;32.50;;;18.95;;
52926;SDS011;40783;49.710;8.842;2022-12-10T19:06:15;40.73;;;22.90;;
52926;SDS011;40783;49.710;8.842;2022-12-10T19:08:42;31.27;;;19.55;;
52926;SDS011;40783;49.710;8.842;2022-12-10T19:11:07;42.43;;;21.33;;
52926;SDS011;40783;49.710;8.842;2022-12-10T19:13:33;37.22;;;20.42;;
52926;SDS011;40783;49.710;8.842;2022-12-10T19:16:09;31.37;;;17.53;;
52926;SDS011;40783;49.710;8.842;2022-12-10T19:18:36;31.63;;;16.95;;
52926;SDS011;40783;49.710;8.842;2022-12-10T19:21:03;32.90;;;19.17;;
52926;SDS011;40783;49.710;8.842;2022-12-10T19:23:32;27.75;;;19.58;;
52926;SDS011;40783;49.710;8.842;2022-12-10T19:26:02;35.20;;;21.67;;
52926;SDS011;40783;49.710;8.842;2022-12-10T19:28:33;32.70;;;17.40;;
52926;SDS011;40783;49.710;8.842;2022-12-10T19:30:58;28.77;;;20.10;;
52926;SDS011;40783;49.710;8.842;2022-12-10T19:35:58;28.83;;;18.33;;
52926;SDS011;40783;49.710;8.842;2022-12-10T19:38:23;31.90;;;17.00;;
52926;SDS011;40783;49.710;8.842;2022-12-10T19:40:51;31.03;;;17.67;;
52926;SDS011;40783;49.710;8.842;2022-12-10T19:43:17;27.88;;;20.60;;
52926;SDS011;40783;49.710;8.842;2022-12-10T19:45:44;25.55;;;17.80;;
52926;SDS011;40783;49.710;8.842;2022-12-10T19:48:10;38.23;;;18.53;;
52926;SDS011;40783;49.710;8.842;2022-12-10T19:50:35;46.37;;;24.30;;
52926;SDS011;40783;49.710;8.842;2022-12-10T19:53:01;40.07;;;21.97;;
52926;SDS011;40783;49.710;8.842;2022-12-10T19:58:00;38.65;;;22.35;;
52926;SDS011;40783;49.710;8.842;2022-12-10T20:00:29;39.90;;;22.60;;
52926;SDS011;40783;49.710;8.842;2022-12-10T20:03:00;41.17;;;23.48;;
52926;SDS011;40783;49.710;8.842;2022-12-10T20:05:34;64.47;;;33.28;;
52926;SDS011;40783;49.710;8.842;2022-12-10T20:08:09;52.78;;;31.40;;
52926;SDS011;40783;49.710;8.842;2022-12-10T20:10:35;47.80;;;27.15;;
52926;SDS011;40783;49.710;8.842;2022-12-10T20:13:01;35.53;;;21.80;;
52926;SDS011;40783;49.710;8.842;2022-12-10T20:15:29;35.85;;;19.13;;
52926;SDS011;40783;49.710;8.842;2022-12-10T20:17:55;32.00;;;18.83;;
52926;SDS011;40783;49.710;8.842;2022-12-10T20:22:51;41.40;;;21.20;;
52926;SDS011;40783;49.710;8.842;2022-12-10T20:27:47;33.30;;;22.25;;
52926;SDS011;40783;49.710;8.842;2022-12-10T20:30:22;41.57;;;22.10;;
52926;SDS011;40783;49.710;8.842;2022-12-10T20:32:50;39.80;;;21.38;;
52926;SDS011;40783;49.710;8.842;2022-12-10T20:35:15;32.23;;;20.97;;
52926;SDS011;40783;49.710;8.842;2022-12-10T20:38:00;34.90;;;19.45;;
52926;SDS011;40783;49.710;8.842;2022-12-10T20:40:28;32.30;;;18.90;;
52926;SDS011;40783;49.710;8.842;2022-12-10T20:46:22;36.35;;;19.60;;
52926;SDS011;40783;49.710;8.842;2022-12-10T20:49:01;31.35;;;18.38;;
52926;SDS011;40783;49.710;8.842;2022-12-10T20:53:58;36.58;;;21.73;;
52926;SDS011;40783;49.710;8.842;2022-12-10T20:56:24;35.73;;;20.70;;
52926;SDS011;40783;49.710;8.842;2022-12-10T20:58:49;36.50;;;23.30;;
52926;SDS011;40783;49.710;8.842;2022-12-10T21:01:16;44.22;;;22.70;;
52926;SDS011;40783;49.710;8.842;2022-12-10T21:03:48;49.28;;;23.95;;
52926;SDS011;40783;49.710;8.842;2022-12-10T21:06:15;36.88;;;22.70;;
52926;SDS011;40783;49.710;8.842;2022-12-10T21:08:55;39.60;;;23.95;;
52926;SDS011;40783;49.710;8.842;2022-12-10T21:11:46;51.80;;;26.13;;
52926;SDS011;40783;49.710;8.842;2022-12-10T21:14:12;52.38;;;27.00;;
52926;SDS011;40783;49.710;8.842;2022-12-10T21:16:43;51.45;;;28.00;;
52926;SDS011;40783;49.710;8.842;2022-12-10T21:19:22;68.70;;;31.27;;
52926;SDS011;40783;49.710;8.842;2022-12-10T21:21:48;49.23;;;27.23;;
52926;SDS011;40783;49.710;8.842;2022-12-10T21:24:22;43.05;;;23.80;;
52926;SDS011;40783;49.710;8.842;2022-12-10T21:26:48;32.60;;;21.97;;
52926;SDS011;40783;49.710;8.842;2022-12-10T21:29:14;34.90;;;19.90;;
52926;SDS011;40783;49.710;8.842;2022-12-10T21:31:45;43.70;;;23.73;;
52926;SDS011;40783;49.710;8.842;2022-12-10T21:34:19;39.53;;;23.20;;
52926;SDS011;40783;49.710;8.842;2022-12-10T21:36:45;46.58;;;25.02;;
52926;SDS011;40783;49.710;8.842;2022-12-10T21:39:13;43.33;;;24.33;;
52926;SDS011;40783;49.710;8.842;2022-12-10T21:41:41;50.47;;;24.92;;
52926;SDS011;40783;49.710;8.842;2022-12-10T21:44:28;47.97;;;28.58;;
52926;SDS011;40783;49.710;8.842;2022-12-10T21:47:01;58.87;;;33.83;;
52926;SDS011;40783;49.710;8.842;2022-12-10T21:49:29;51.60;;;28.83;;
52926;SDS011;40783;49.710;8.842;2022-12-10T21:51:55;38.35;;;21.90;;
52926;SDS011;40783;49.710;8.842;2022-12-10T21:54:21;44.70;;;27.15;;
52926;SDS011;40783;49.710;8.842;2022-12-10T21:56:46;38.07;;;24.77;;
52926;SDS011;40783;49.710;8.842;2022-12-10T21:59:11;51.17;;;30.10;;
52926;SDS011;40783;49.710;8.842;2022-12-10T22:01:40;57.23;;;30.30;;
52926;SDS011;40783;49.710;8.842;2022-12-10T22:04:05;39.40;;;22.38;;
52926;SDS011;40783;49.710;8.842;2022-12-10T22:06:30;44.17;;;24.70;;
52926;SDS011;40783;49.710;8.842;2022-12-10T22:08:58;47.95;;;24.67;;
52926;SDS011;40783;49.710;8.842;2022-12-10T22:11:26;46.33;;;24.93;;
52926;SDS011;40783;49.710;8.842;2022-12-10T22:13:52;40.75;;;23.00;;
52926;SDS011;40783;49.710;8.842;2022-12-10T22:21:14;44.35;;;22.63;;
52926;SDS011;40783;49.710;8.842;2022-12-10T22:23:47;37.47;;;21.65;;
52926;SDS011;40783;49.710;8.842;2022-12-10T22:26:12;30.40;;;20.17;;